Time;durP1;ratioP1;P1;durP2;ratioP2;P2;SDS_P1;SDS_P2;PMS_P1;PMS_P2;Temp;Humidity;BMP_temperature;BMP_pressure;BME280_temperature;BME280_humidity;BME280_pressure;Samples;Min_cycle;Max_cycle;Signal;HPM_P1;HPM_P2
2023/10/12 00:01:38;;;;;;;10.38;3.78;;;10.70;99.90;;;;;;5094908;28;20036;-79
2023/10/12 00:04:11;;;;;;;4.90;2.28;;;10.60;99.90;;;;;;5095276;28;20017;-79
2023/10/12 00:06:37;;;;;;;6.47;3.00;;;10.70;99.90;;;;;;5094024;28;20028;-79
2023/10/12 00:09:17;;;;;;;2.45;1.88;;;10.70;99.90;;;;;;5093635;28;20101;-79
2023/10/12 00:11:54;;;;;;;7.72;2.53;;;10.60;99.90;;;;;;5094308;28;20508;-78
2023/10/12 00:14:22;;;;;;;8.57;2.33;;;10.50;99.90;;;;;;5093575;28;20436;-78
2023/10/12 00:16:50;;;;;;;2.63;2.42;;;10.40;99.90;;;;;;5093152;28;20027;-79
2023/10/12 00:19:16;;;;;;;3.35;2.33;;;10.40;99.90;;;;;;5095363;28;20032;-79
2023/10/12 00:21:43;;;;;;;4.78;2.15;;;10.30;99.90;;;;;;5094160;28;20503;-79
2023/10/12 00:24:12;;;;;;;3.40;2.40;;;10.30;99.90;;;;;;5083258;28;20619;-78
2023/10/12 00:26:42;;;;;;;3.03;2.00;;;10.30;99.90;;;;;;5078585;28;20020;-78
2023/10/12 00:29:08;;;;;;;6.13;2.20;;;10.20;99.90;;;;;;5078656;28;20044;-79
2023/10/12 00:31:37;;;;;;;11.45;2.97;;;10.10;99.90;;;;;;5078715;28;20106;-78
2023/10/12 00:34:03;;;;;;;2.50;1.95;;;10.20;99.90;;;;;;5059947;28;20078;-79
2023/10/12 00:36:29;;;;;;;6.20;2.30;;;10.10;99.90;;;;;;5060137;28;20433;-79
2023/10/12 00:38:56;;;;;;;2.38;2.15;;;10.10;99.90;;;;;;5059645;28;20108;-78
2023/10/12 00:41:24;;;;;;;9.00;2.75;;;10.00;99.90;;;;;;5077998;28;20025;-78
2023/10/12 00:49:18;;;;;;;4.25;2.53;;;9.80;99.90;;;;;;5077916;28;20016;-79
2023/10/12 00:51:52;;;;;;;6.45;2.88;;;9.80;99.90;;;;;;5077402;28;20033;-79
2023/10/12 00:54:40;;;;;;;4.38;2.38;;;9.80;99.90;;;;;;5059073;28;20024;-78
2023/10/12 00:57:08;;;;;;;3.08;2.05;;;9.80;99.90;;;;;;5077007;28;20425;-79
2023/10/12 00:59:34;;;;;;;4.10;2.90;;;9.70;99.90;;;;;;5058926;28;20392;-78
2023/10/12 01:02:15;;;;;;;7.32;2.85;;;9.80;99.90;;;;;;5077143;28;20016;-80
2023/10/12 01:04:41;;;;;;;2.92;1.90;;;9.80;99.90;;;;;;5077238;28;20016;-79
2023/10/12 01:07:10;;;;;;;5.38;2.95;;;9.70;99.90;;;;;;5077005;28;20020;-79
2023/10/12 01:09:39;;;;;;;8.55;2.50;;;9.70;99.90;;;;;;5076990;28;20020;-79
2023/10/12 01:12:13;;;;;;;3.37;2.70;;;9.70;99.90;;;;;;5059638;28;20476;-79
2023/10/12 01:14:43;;;;;;;5.35;3.20;;;9.70;99.90;;;;;;5059290;28;20044;-78
2023/10/12 01:17:34;;;;;;;3.50;3.20;;;9.60;99.90;;;;;;5059723;28;20043;-79
2023/10/12 01:20:10;;;;;;;4.28;1.85;;;9.60;99.90;;;;;;5077355;28;20059;-79
2023/10/12 01:22:39;;;;;;;5.70;2.65;;;9.60;99.90;;;;;;5077442;28;20029;-80
2023/10/12 01:25:19;;;;;;;7.82;3.65;;;9.50;99.90;;;;;;5077599;28;20028;-78
2023/10/12 01:27:45;;;;;;;4.90;3.15;;;9.70;99.90;;;;;;5077535;28;20354;-79
2023/10/12 01:30:13;;;;;;;4.88;3.28;;;9.80;99.90;;;;;;5060279;28;20032;-77
2023/10/12 01:32:39;;;;;;;2.00;1.90;;;9.70;99.90;;;;;;5083103;28;20032;-80
2023/10/12 01:35:06;;;;;;;5.15;2.75;;;9.60;99.90;;;;;;5082330;28;20032;-80
2023/10/12 01:37:42;;;;;;;4.75;2.70;;;9.50;99.90;;;;;;5064236;28;20021;-81
2023/10/12 01:40:21;;;;;;;4.50;2.67;;;9.40;99.90;;;;;;5084184;28;20076;-81
2023/10/12 01:48:12;;;;;;;3.90;2.80;;;9.30;99.90;;;;;;5079809;28;20032;-79
2023/10/12 01:50:37;;;;;;;6.03;2.70;;;9.20;99.90;;;;;;5078226;28;20041;-79
2023/10/12 01:55:46;;;;;;;5.72;3.00;;;9.20;99.90;;;;;;5078362;28;20127;-80
2023/10/12 01:58:14;;;;;;;5.32;2.53;;;9.10;99.90;;;;;;5059726;28;20031;-79
2023/10/12 02:00:41;;;;;;;3.38;2.50;;;9.20;99.90;;;;;;5079795;28;20027;-79
2023/10/12 02:03:18;;;;;;;4.43;2.65;;;9.10;99.90;;;;;;5079223;28;20105;-79
2023/10/12 02:05:50;;;;;;;6.20;3.15;;;9.10;99.90;;;;;;5079079;28;20098;-79
2023/10/12 02:08:18;;;;;;;2.55;1.85;;;9.20;99.90;;;;;;5079219;28;20031;-79
2023/10/12 02:10:55;;;;;;;7.53;2.38;;;9.20;99.90;;;;;;5079328;28;20017;-78
2023/10/12 02:13:21;;;;;;;2.78;2.58;;;9.30;99.90;;;;;;5078879;28;20017;-78
2023/10/12 02:15:50;;;;;;;4.07;2.17;;;9.30;99.90;;;;;;5079069;28;20092;-81
2023/10/12 02:18:17;;;;;;;8.60;3.35;;;9.30;99.90;;;;;;5077627;28;20013;-80
2023/10/12 02:20:59;;;;;;;4.10;2.55;;;9.20;99.90;;;;;;5078445;28;20021;-80
2023/10/12 02:23:36;;;;;;;3.47;2.20;;;9.00;99.90;;;;;;5077271;28;20040;-80
2023/10/12 02:26:07;;;;;;;3.88;2.33;;;9.00;99.90;;;;;;5060296;28;20385;-80
2023/10/12 02:28:37;;;;;;;3.15;2.08;;;9.00;99.90;;;;;;5059898;28;20402;-82
2023/10/12 02:31:05;;;;;;;2.58;2.38;;;9.00;99.90;;;;;;5079496;28;20107;-81
2023/10/12 02:33:36;;;;;;;4.80;3.22;;;9.00;99.90;;;;;;5061012;28;20021;-78
2023/10/12 02:36:06;;;;;;;3.47;2.15;;;9.00;99.90;;;;;;5078288;28;20036;-81
2023/10/12 02:38:34;;;;;;;2.80;2.30;;;9.00;99.90;;;;;;5078635;28;20476;-81
2023/10/12 02:40:59;;;;;;;3.85;2.65;;;9.10;99.90;;;;;;5078845;28;20146;-81
2023/10/12 02:43:31;;;;;;;3.70;2.65;;;9.10;99.90;;;;;;5081783;28;20066;-81
2023/10/12 02:46:05;;;;;;;4.40;2.60;;;9.10;99.90;;;;;;5079138;28;20024;-79
2023/10/12 02:48:36;;;;;;;6.95;3.25;;;9.00;99.90;;;;;;5076285;28;20020;-76
2023/10/12 02:51:06;;;;;;;2.65;1.83;;;9.00;99.90;;;;;;5058567;28;20035;-77
2023/10/12 02:53:34;;;;;;;6.38;3.20;;;8.90;99.90;;;;;;5076352;28;20469;-78
2023/10/12 02:56:01;;;;;;;6.38;2.70;;;9.00;99.90;;;;;;5076123;28;20087;-79
2023/10/12 02:58:27;;;;;;;8.50;2.55;;;8.90;99.90;;;;;;5058378;28;20025;-79
2023/10/12 03:00:56;;;;;;;3.20;2.22;;;8.90;99.90;;;;;;5077724;28;20028;-79
2023/10/12 03:03:36;;;;;;;3.97;2.33;;;8.90;99.90;;;;;;5078778;28;20054;-80
2023/10/12 03:06:10;;;;;;;3.65;3.10;;;8.90;99.90;;;;;;5078775;28;20017;-79
2023/10/12 03:09:03;;;;;;;5.65;3.08;;;8.80;99.90;;;;;;5080000;28;20027;-80
2023/10/12 03:11:31;;;;;;;4.65;2.60;;;8.70;99.90;;;;;;5079752;28;20046;-79
2023/10/12 03:14:03;;;;;;;4.50;2.00;;;8.80;99.90;;;;;;5078419;28;20111;-79
2023/10/12 03:16:33;;;;;;;4.05;2.15;;;8.80;99.90;;;;;;5059369;28;20137;-79
2023/10/12 03:19:00;;;;;;;3.47;2.47;;;8.90;99.90;;;;;;5076921;28;20023;-79
2023/10/12 03:21:33;;;;;;;9.68;2.45;;;8.80;99.90;;;;;;5059007;28;20033;-79
2023/10/12 03:24:02;;;;;;;6.85;2.63;;;8.80;99.90;;;;;;5080341;28;20048;-79
2023/10/12 03:26:28;;;;;;;;;;;8.80;99.90;;;;;;5093853;28;20020;-76
2023/10/12 03:29:18;;;;;;;4.93;2.65;;;8.70;99.90;;;;;;5093361;28;19930;-77
2023/10/12 03:34:16;;;;;;;2.70;2.20;;;8.70;99.90;;;;;;5095380;28;20530;-79
2023/10/12 03:36:47;;;;;;;5.38;2.80;;;8.90;99.90;;;;;;5093696;28;20544;-79
2023/10/12 03:44:18;;;;;;;3.67;2.35;;;8.90;99.90;;;;;;5095397;28;20051;-79
2023/10/12 03:46:47;;;;;;;3.55;2.00;;;8.80;99.90;;;;;;5094953;28;20028;-79
2023/10/12 03:52:13;;;;;;;3.28;2.20;;;8.60;99.90;;;;;;5094589;28;20384;-79
2023/10/12 03:54:45;;;;;;;4.30;2.65;;;8.60;99.90;;;;;;5093308;28;20114;-76
2023/10/12 03:57:19;;;;;;;2.33;2.00;;;8.60;99.90;;;;;;5095212;28;20070;-79
2023/10/12 03:59:59;;;;;;;2.97;1.92;;;8.60;99.90;;;;;;5098401;28;20035;-79
2023/10/12 04:02:24;;;;;;;3.72;2.85;;;8.60;99.90;;;;;;5100843;28;20535;-80
2023/10/12 04:05:15;;;;;;;2.97;2.10;;;8.60;99.90;;;;;;5099218;28;20040;-79
2023/10/12 04:11:15;;;;;;;4.97;1.92;;;8.60;99.90;;;;;;5099599;28;20020;-80
2023/10/12 04:13:09;;;;;;;8.68;2.40;;;8.50;99.90;;;;;;5099696;28;20028;-79
2023/10/12 04:16:08;;;;;;;7.68;2.78;;;8.50;99.90;;;;;;5099041;28;20429;-78
2023/10/12 04:18:32;;;;;;;4.72;1.98;;;8.50;99.90;;;;;;5099353;28;20024;-79
2023/10/12 04:20:58;;;;;;;5.05;2.03;;;8.50;99.90;;;;;;5098146;28;20060;-79
2023/10/12 04:28:43;;;;;;;2.85;2.10;;;8.60;99.90;;;;;;5098642;28;20055;-78
2023/10/12 04:33:44;;;;;;;5.15;3.72;;;8.80;99.90;;;;;;5100318;28;20024;-79
2023/10/12 04:36:14;;;;;;;6.32;2.35;;;8.90;99.90;;;;;;5099036;28;20036;-79
2023/10/12 04:43:52;;;;;;;5.88;3.20;;;8.70;99.90;;;;;;5099900;28;20027;-79
2023/10/12 04:48:58;;;;;;;1.70;1.60;;;8.60;99.90;;;;;;5100393;28;20059;-78
2023/10/12 04:51:30;;;;;;;3.58;2.67;;;8.60;99.90;;;;;;5100813;28;20024;-79
2023/10/12 04:54:06;;;;;;;2.65;2.08;;;8.60;99.90;;;;;;5100095;28;20020;-79
2023/10/12 04:56:37;;;;;;;3.30;2.38;;;8.70;99.90;;;;;;5097888;28;20492;-79
2023/10/12 04:59:15;;;;;;;4.25;3.03;;;8.90;99.90;;;;;;5098479;28;20069;-79
2023/10/12 05:01:59;;;;;;;4.45;3.05;;;9.00;99.90;;;;;;5097929;28;20035;-79
2023/10/12 05:09:37;;;;;;;3.78;2.50;;;9.00;99.90;;;;;;5100442;28;20016;-80
2023/10/12 05:12:04;;;;;;;10.02;2.88;;;9.00;99.90;;;;;;5100080;28;20415;-79
2023/10/12 05:14:31;;;;;;;3.95;2.60;;;8.90;99.90;;;;;;5099741;28;20024;-80
2023/10/12 05:16:56;;;;;;;3.58;2.80;;;8.80;99.90;;;;;;5098578;28;20365;-79
2023/10/12 05:19:22;;;;;;;4.97;1.90;;;8.70;99.90;;;;;;5099481;28;20035;-80
2023/10/12 05:21:49;;;;;;;3.58;2.47;;;8.60;99.90;;;;;;5098585;28;20024;-79
2023/10/12 05:24:15;;;;;;;5.05;2.45;;;8.70;99.90;;;;;;5085513;28;20033;-81
2023/10/12 05:26:40;;;;;;;2.45;1.92;;;8.60;99.90;;;;;;5079260;28;20059;-81
2023/10/12 05:29:28;;;;;;;4.28;2.30;;;8.50;99.90;;;;;;5079496;28;20021;-81
2023/10/12 05:32:06;;;;;;;5.40;2.85;;;8.50;99.90;;;;;;5060063;28;20028;-79
2023/10/12 05:37:26;;;;;;;6.82;2.88;;;8.80;99.90;;;;;;5078138;28;20396;-80
2023/10/12 05:39:55;;;;;;;5.03;1.92;;;8.80;99.90;;;;;;5077960;28;20036;-80
2023/10/12 05:42:23;;;;;;;3.45;3.15;;;8.70;99.90;;;;;;5060054;28;20048;-81
2023/10/12 05:44:51;;;;;;;3.70;3.38;;;8.60;99.90;;;;;;5077852;28;20032;-80
2023/10/12 05:47:28;;;;;;;2.30;2.03;;;8.50;99.90;;;;;;5077402;28;20025;-79
2023/10/12 05:49:57;;;;;;;2.20;1.73;;;8.30;99.90;;;;;;5061041;28;20032;-80
2023/10/12 05:52:25;;;;;;;4.65;1.83;;;8.40;99.90;;;;;;5079908;28;20023;-81
2023/10/12 05:55:07;;;;;;;5.07;2.60;;;8.50;99.90;;;;;;5082201;28;20085;-81
2023/10/12 05:57:34;;;;;;;3.38;2.72;;;8.50;99.90;;;;;;5079866;28;20025;-79
2023/10/12 06:03:21;;;;;;;4.97;3.67;;;8.50;99.90;;;;;;5077740;28;20037;-78
2023/10/12 06:05:51;;;;;;;4.78;3.33;;;8.60;99.90;;;;;;5076388;28;20044;-80
2023/10/12 06:08:18;;;;;;;4.50;3.10;;;8.60;99.90;;;;;;5058897;28;20024;-78
2023/10/12 06:10:44;;;;;;;2.75;2.17;;;8.50;99.90;;;;;;5075746;28;20031;-78
2023/10/12 06:13:15;;;;;;;4.68;2.63;;;8.50;99.90;;;;;;5075649;28;20104;-78
2023/10/12 06:15:42;;;;;;;8.73;2.83;;;8.50;99.90;;;;;;5057161;28;20028;-78
2023/10/12 06:18:10;;;;;;;3.60;2.45;;;8.60;99.90;;;;;;5075155;28;20066;-78
2023/10/12 06:20:42;;;;;;;2.97;2.47;;;8.70;99.90;;;;;;5057290;28;20024;-79
2023/10/12 06:23:16;;;;;;;8.00;2.55;;;8.80;99.90;;;;;;5061704;28;20039;-77
2023/10/12 06:25:45;;;;;;;2.78;2.33;;;8.80;99.90;;;;;;5095133;28;20023;-78
2023/10/12 06:28:19;;;;;;;4.82;3.20;;;8.80;99.90;;;;;;5093907;28;20357;-78
2023/10/12 06:30:45;;;;;;;12.68;2.78;;;8.90;99.90;;;;;;5093716;28;20031;-78
2023/10/12 06:33:15;;;;;;;6.15;2.70;;;8.90;99.90;;;;;;5093675;28;20028;-79
2023/10/12 06:36:01;;;;;;;10.40;3.30;;;9.00;99.90;;;;;;5094717;28;20078;-78
2023/10/12 06:38:47;;;;;;;9.40;2.83;;;9.20;99.90;;;;;;5093385;28;20028;-78
2023/10/12 06:44:12;;;;;;;6.65;2.85;;;9.40;99.90;;;;;;5094665;28;20085;-77
2023/10/12 06:46:45;;;;;;;4.93;2.90;;;9.50;99.90;;;;;;5095133;28;20028;-78
2023/10/12 06:49:18;;;;;;;2.55;2.08;;;9.70;99.90;;;;;;5093884;28;20475;-78
2023/10/12 06:51:53;;;;;;;3.35;1.90;;;9.90;99.90;;;;;;5097038;28;20024;-79
2023/10/12 06:54:32;;;;;;;5.18;1.98;;;10.00;99.90;;;;;;5093641;28;20036;-78
2023/10/12 07:02:28;;;;;;;1.92;1.67;;;10.80;99.90;;;;;;5097069;28;20031;-78
2023/10/12 07:04:54;;;;;;;;;;;11.00;99.90;;;;;;5096630;28;20040;-77
2023/10/12 07:07:27;;;;;;;5.75;2.05;;;11.20;99.90;;;;;;5097304;28;19904;-80
2023/10/12 07:12:45;;;;;;;8.43;2.30;;;11.70;99.90;;;;;;5095284;28;20012;-79
2023/10/12 07:15:26;;;;;;;4.57;2.92;;;11.90;99.90;;;;;;5092889;28;20039;-78
2023/10/12 07:17:54;;;;;;;4.43;1.98;;;11.90;99.90;;;;;;5095190;28;20491;-77
2023/10/12 07:25:58;;;;;;;3.15;2.55;;;12.20;99.90;;;;;;5035807;28;20103;-79
2023/10/12 07:28:32;;;;;;;3.70;2.10;;;12.30;99.90;;;;;;5056111;28;20063;-79
2023/10/12 07:33:51;;;;;;;3.58;1.98;;;12.50;99.90;;;;;;5074167;28;20389;-79
2023/10/12 07:36:17;;;;;;;2.45;2.25;;;12.50;99.90;;;;;;5056621;28;20443;-79
2023/10/12 07:38:45;;;;;;;3.58;3.00;;;12.70;99.90;;;;;;5075530;28;20377;-78
2023/10/12 07:41:11;;;;;;;4.90;2.47;;;12.70;99.90;;;;;;5056715;28;20111;-78
2023/10/12 07:43:38;;;;;;;4.57;3.63;;;12.70;99.90;;;;;;5074182;28;20116;-78
2023/10/12 07:46:23;;;;;;;5.32;2.25;;;12.80;99.90;;;;;;5073866;28;20464;-79
2023/10/12 07:48:49;;;;;;;3.10;1.98;;;12.90;99.90;;;;;;5055712;28;20024;-78
2023/10/12 07:51:15;;;;;;;2.47;1.95;;;13.10;99.90;;;;;;5073624;28;20024;-78
2023/10/12 07:53:50;;;;;;;7.13;3.30;;;13.30;99.90;;;;;;5073272;28;20027;-78
2023/10/12 07:56:18;;;;;;;3.35;2.75;;;13.40;99.90;;;;;;5055751;28;20121;-79
2023/10/12 07:58:47;;;;;;;3.10;2.80;;;13.70;99.90;;;;;;5073515;28;20028;-78
2023/10/12 08:03:59;;;;;;;7.45;2.95;;;14.10;99.90;;;;;;5074039;28;20503;-78
2023/10/12 08:11:45;;;;;;;5.30;2.60;;;14.70;99.90;;;;;;5073329;28;20039;-79
2023/10/12 08:14:39;;;;;;;13.43;3.70;;;15.00;99.90;;;;;;5073244;28;20033;-78
2023/10/12 08:19:55;;;;;;;5.55;2.50;;;15.30;99.90;;;;;;5073723;28;20102;-79
2023/10/12 08:22:29;;;;;;;4.93;3.65;;;15.50;99.90;;;;;;5073422;28;20013;-78
2023/10/12 08:25:04;;;;;;;8.55;3.55;;;15.70;99.90;;;;;;5076926;28;20044;-78
2023/10/12 08:27:43;;;;;;;18.48;4.32;;;16.00;99.90;;;;;;5077392;28;20094;-78
2023/10/12 08:30:13;;;;;;;10.05;3.88;;;16.30;99.90;;;;;;5057452;28;20484;-78
2023/10/12 08:32:55;;;;;;;6.82;4.20;;;16.60;99.90;;;;;;5055061;28;20575;-78
2023/10/12 08:35:39;;;;;;;9.88;3.55;;;16.80;99.90;;;;;;5073031;28;20039;-80
2023/10/12 08:38:15;;;;;;;6.70;2.97;;;17.00;99.90;;;;;;5072965;28;20491;-78
2023/10/12 08:41:06;;;;;;;4.60;2.22;;;17.40;99.90;;;;;;5055104;28;20484;-78
2023/10/12 08:43:45;;;;;;;4.60;2.17;;;17.50;99.90;;;;;;5073091;28;20032;-79
2023/10/12 08:46:12;;;;;;;4.35;2.72;;;17.60;99.90;;;;;;5058500;28;20036;-79
2023/10/12 08:48:52;;;;;;;8.35;2.80;;;17.80;99.90;;;;;;5076212;28;20023;-78
2023/10/12 08:51:28;;;;;;;5.57;2.50;;;17.80;99.90;;;;;;5076620;28;20430;-79
2023/10/12 08:53:58;;;;;;;2.78;2.08;;;17.80;99.90;;;;;;5058715;28;20522;-78
2023/10/12 08:56:31;;;;;;;9.23;2.95;;;17.90;99.90;;;;;;5058659;28;20037;-78
2023/10/12 08:59:04;;;;;;;8.60;2.55;;;18.00;99.90;;;;;;5076295;28;20021;-78
2023/10/12 09:01:31;;;;;;;7.88;3.15;;;18.20;99.90;;;;;;5058294;28;20060;-77
2023/10/12 09:04:12;;;;;;;3.00;2.25;;;18.30;99.90;;;;;;5058251;28;20111;-78
2023/10/12 09:09:09;;;;;;;5.00;2.30;;;18.50;99.90;;;;;;5076295;28;20385;-79
2023/10/12 09:11:35;;;;;;;6.18;3.03;;;18.60;99.90;;;;;;5058203;28;20025;-78
2023/10/12 09:14:12;;;;;;;8.82;3.38;;;18.70;99.90;;;;;;5058455;28;20420;-78
2023/10/12 09:16:38;;;;;;;5.80;2.63;;;18.90;99.90;;;;;;5076049;28;20028;-78
2023/10/12 09:19:07;;;;;;;6.15;3.00;;;18.90;99.90;;;;;;5075877;28;20031;-79
2023/10/12 09:21:57;;;;;;;5.85;2.45;;;19.00;99.90;;;;;;5075940;28;20517;-78
2023/10/12 09:24:28;;;;;;;9.00;2.83;;;19.00;99.90;;;;;;5083331;28;20408;-78
2023/10/12 09:27:02;;;;;;;5.65;2.55;;;19.00;99.90;;;;;;5094619;28;20021;-79
2023/10/12 09:29:28;;;;;;;3.90;2.60;;;19.10;99.90;;;;;;5096095;28;20031;-78
2023/10/12 09:35:02;;;;;;;6.05;2.20;;;19.30;99.90;;;;;;5096208;28;20043;-79
2023/10/12 09:37:33;;;;;;;6.10;2.30;;;19.40;99.90;;;;;;5095858;28;20115;-78
2023/10/12 09:39:59;;;;;;;6.70;2.70;;;19.50;99.90;;;;;;5095612;28;20483;-78
2023/10/12 09:42:30;;;;;;;5.07;2.78;;;19.60;99.90;;;;;;5095542;28;20102;-78
2023/10/12 09:45:04;;;;;;;5.40;2.63;;;19.70;99.90;;;;;;5094285;28;20481;-78
2023/10/12 09:47:53;;;;;;;9.90;2.20;;;19.80;99.90;;;;;;5095988;28;20388;-78
2023/10/12 09:50:19;;;;;;;9.93;3.65;;;19.90;99.90;;;;;;5094350;28;20028;-78
2023/10/12 09:52:57;;;;;;;5.80;3.10;;;20.10;99.90;;;;;;5095676;28;20050;-78
2023/10/12 09:55:32;;;;;;;7.10;2.50;;;20.30;99.90;;;;;;5095070;28;20036;-78
2023/10/12 09:58:14;;;;;;;10.85;3.00;;;20.50;99.90;;;;;;5095597;28;20027;-79
2023/10/12 10:00:59;;;;;;;5.53;2.47;;;20.50;99.90;;;;;;5094025;28;20039;-78
2023/10/12 10:03:27;;;;;;;6.75;2.58;;;20.70;99.90;;;;;;5095149;28;20024;-78
2023/10/12 10:06:10;;;;;;;6.97;3.17;;;20.80;99.90;;;;;;5094063;28;20020;-79
2023/10/12 10:08:44;;;;;;;6.80;2.88;;;21.10;99.90;;;;;;5094122;28;20055;-78
2023/10/12 10:11:12;;;;;;;3.95;2.42;;;21.30;99.90;;;;;;5095202;28;20384;-78
2023/10/12 10:13:51;;;;;;;4.07;2.50;;;21.50;99.90;;;;;;5095188;28;20020;-78
2023/10/12 10:16:19;;;;;;;;;;;21.60;99.90;;;;;;5093981;28;20442;-79
2023/10/12 10:18:48;;;;;;;3.73;2.63;;;21.80;99.90;;;;;;5093581;28;19904;-79
2023/10/12 10:21:19;;;;;;;;;;;22.10;99.90;;;;;;5097920;28;20678;-80
2023/10/12 10:23:52;;;;;;;9.75;3.05;;;22.30;99.90;;;;;;5093582;28;20011;-79
2023/10/12 10:26:31;;;;;;;3.00;2.67;;;22.60;99.90;;;;;;5095757;28;20012;-78
2023/10/12 10:29:04;;;;;;;4.60;2.25;;;22.80;97.50;;;;;;5096578;28;20023;-78
2023/10/12 10:31:41;;;;;;;4.20;2.42;;;23.10;97.60;;;;;;5093603;28;20032;-79
2023/10/12 10:34:10;;;;;;;4.93;2.38;;;23.20;96.50;;;;;;5093354;28;20035;-78
2023/10/12 10:36:36;;;;;;;;;;;23.30;95.00;;;;;;5094830;28;20464;-78
2023/10/12 10:39:28;;;;;;;4.63;2.25;;;23.40;94.00;;;;;;5095715;28;19910;-78
2023/10/12 10:42:00;;;;;;;5.93;2.15;;;23.60;93.10;;;;;;5093268;28;20115;-78
2023/10/12 10:44:26;;;;;;;6.10;2.50;;;23.70;92.50;;;;;;5093359;28;20023;-79
2023/10/12 10:46:58;;;;;;;4.30;2.33;;;23.90;91.70;;;;;;5094514;28;20028;-79
2023/10/12 10:49:33;;;;;;;2.55;2.15;;;24.20;91.30;;;;;;5093304;28;20114;-77
2023/10/12 10:54:34;;;;;;;3.60;2.03;;;24.40;82.90;;;;;;5099914;28;20062;-78
2023/10/12 10:57:16;;;;;;;4.53;2.47;;;24.50;83.20;;;;;;5102446;28;20035;-79
2023/10/12 10:59:43;;;;;;;7.13;2.72;;;24.60;81.90;;;;;;5098062;28;20020;-77
2023/10/12 11:02:13;;;;;;;4.35;2.60;;;24.70;81.30;;;;;;5104602;28;20030;-78
2023/10/12 11:04:42;;;;;;;6.78;3.00;;;24.80;80.10;;;;;;5100387;28;20016;-79
2023/10/12 11:07:12;;;;;;;;;;;24.70;77.60;;;;;;5097826;28;20054;-78
2023/10/12 11:12:17;;;;;;;;;;;24.90;78.20;;;;;;5104238;28;20035;-78
2023/10/12 11:14:52;;;;;;;7.07;2.63;;;24.90;79.30;;;;;;5101889;28;19908;-79
2023/10/12 11:17:20;;;;;;;5.47;2.70;;;24.90;76.50;;;;;;5102552;28;20058;-78
2023/10/12 11:19:46;;;;;;;2.33;1.92;;;25.00;76.50;;;;;;5100172;28;20127;-78
2023/10/12 11:22:16;;;;;;;6.57;2.03;;;25.10;77.40;;;;;;5101660;28;20031;-78
2023/10/12 11:24:53;;;;;;;4.80;2.60;;;25.20;75.40;;;;;;5094814;28;20046;-79
2023/10/12 11:27:34;;;;;;;5.95;2.80;;;25.20;75.40;;;;;;5098883;28;20101;-79
2023/10/12 11:30:06;;;;;;;3.58;1.58;;;25.30;74.80;;;;;;5100542;28;20024;-78
2023/10/12 11:32:33;;;;;;;6.53;2.38;;;25.60;76.10;;;;;;5102483;28;20056;-79
2023/10/12 11:35:01;;;;;;;5.55;2.13;;;25.70;72.70;;;;;;5101533;28;20145;-80
2023/10/12 11:37:30;;;;;;;2.67;2.40;;;25.80;72.80;;;;;;5102211;28;20044;-80
2023/10/12 11:39:57;;;;;;;6.75;2.28;;;25.80;74.00;;;;;;5100483;28;20039;-80
2023/10/12 11:42:23;;;;;;;5.00;2.25;;;25.80;72.00;;;;;;5099766;28;20060;-80
2023/10/12 11:44:51;;;;;;;5.78;2.38;;;25.80;71.70;;;;;;5100740;28;20062;-79
2023/10/12 11:47:25;;;;;;;3.50;2.60;;;25.90;71.60;;;;;;5100396;28;20044;-80
2023/10/12 11:49:58;;;;;;;6.28;2.60;;;26.00;71.90;;;;;;5100342;28;20028;-80
2023/10/12 11:52:34;;;;;;;3.58;2.22;;;25.80;71.00;;;;;;5099772;28;20074;-80
2023/10/12 11:55:31;;;;;;;6.35;2.60;;;25.70;71.40;;;;;;5100257;28;20103;-79
2023/10/12 11:58:06;;;;;;;9.18;2.83;;;25.50;71.80;;;;;;5100630;28;20031;-79
2023/10/12 12:00:36;;;;;;;5.75;3.15;;;25.50;71.10;;;;;;5099539;28;20233;-78
2023/10/12 12:03:03;;;;;;;3.90;2.58;;;25.40;71.10;;;;;;5101293;28;20035;-78
2023/10/12 12:05:29;;;;;;;3.20;1.95;;;25.70;70.10;;;;;;5101631;28;20077;-78
2023/10/12 12:07:57;;;;;;;3.67;2.42;;;25.80;70.30;;;;;;5103604;28;20079;-78
2023/10/12 12:10:29;;;;;;;3.60;2.35;;;25.90;71.40;;;;;;5096901;28;20047;-78
2023/10/12 12:12:57;;;;;;;2.90;1.90;;;26.20;70.40;;;;;;5092329;28;20020;-79
2023/10/12 12:15:24;;;;;;;5.03;2.13;;;26.60;68.40;;;;;;5093914;28;20448;-79
2023/10/12 12:17:53;;;;;;;3.35;2.13;;;26.90;69.00;;;;;;5094649;28;20047;-79
2023/10/12 12:20:22;;;;;;;5.68;2.45;;;27.20;66.90;;;;;;5096063;28;20028;-80
2023/10/12 12:22:48;;;;;;;2.80;1.90;;;27.70;65.10;;;;;;5094305;28;20024;-80
2023/10/12 12:25:20;;;;;;;6.13;2.25;;;28.20;65.10;;;;;;5077008;28;20047;-79
2023/10/12 12:27:48;;;;;;;6.47;2.20;;;28.30;64.20;;;;;;5059181;28;20029;-80
2023/10/12 12:30:29;;;;;;;4.03;1.73;;;28.60;63.10;;;;;;5058826;28;20021;-79
2023/10/12 12:33:00;;;;;;;4.60;2.03;;;28.60;63.60;;;;;;5076974;28;20358;-80
2023/10/12 12:35:27;;;;;;;3.83;2.33;;;28.70;64.50;;;;;;5058924;28;20469;-79
2023/10/12 12:38:00;;;;;;;6.88;2.55;;;28.70;61.80;;;;;;5058853;28;20079;-78
2023/10/12 12:40:29;;;;;;;2.05;1.65;;;29.10;61.10;;;;;;5058819;28;20024;-79
2023/10/12 12:42:55;;;;;;;;;;;29.40;61.60;;;;;;5076953;28;20062;-80
2023/10/12 12:45:21;;;;;;;4.15;2.00;;;29.50;61.40;;;;;;5076432;28;19912;-78
2023/10/12 12:47:46;;;;;;;4.22;1.80;;;29.60;59.90;;;;;;5058465;28;20056;-78
2023/10/12 12:50:12;;;;;;;10.02;2.20;;;29.10;58.90;;;;;;5058668;28;20025;-80
2023/10/12 12:52:38;;;;;;;5.35;2.03;;;28.80;59.50;;;;;;5076430;28;20021;-79
2023/10/12 12:55:10;;;;;;;5.53;1.60;;;28.40;60.50;;;;;;5058532;28;20037;-80
2023/10/12 12:57:39;;;;;;;2.38;1.55;;;27.90;59.70;;;;;;5058581;28;20020;-79
2023/10/12 13:00:08;;;;;;;;;;;27.50;60.60;;;;;;5076697;28;20438;-78
2023/10/12 13:02:36;;;;;;;2.97;1.48;;;27.30;61.40;;;;;;5058401;28;19927;-80
2023/10/12 13:05:04;;;;;;;7.10;2.35;;;27.20;60.00;;;;;;5058197;28;20050;-80
2023/10/12 13:07:31;;;;;;;2.13;1.85;;;27.40;59.60;;;;;;5058536;28;20031;-82
2023/10/12 13:09:58;;;;;;;7.07;2.20;;;27.20;60.50;;;;;;5058165;28;20087;-79
2023/10/12 13:12:23;;;;;;;4.05;2.30;;;27.00;59.60;;;;;;5057888;28;20020;-79
2023/10/12 13:14:49;;;;;;;21.73;2.55;;;26.80;60.40;;;;;;5057469;28;20032;-79
2023/10/12 13:17:18;;;;;;;4.85;1.80;;;26.80;59.90;;;;;;5057420;28;20021;-80
2023/10/12 13:19:44;;;;;;;2.50;1.80;;;26.80;62.00;;;;;;5058160;28;20146;-82
2023/10/12 13:22:12;;;;;;;4.95;1.90;;;26.90;61.20;;;;;;5058007;28;20453;-86
2023/10/12 13:24:38;;;;;;;4.50;2.17;;;26.50;59.80;;;;;;5075838;28;20037;-82
2023/10/12 13:27:11;;;;;;;3.85;1.95;;;26.60;61.20;;;;;;5057777;28;20028;-81
2023/10/12 13:29:36;;;;;;;4.38;2.03;;;26.80;60.70;;;;;;5057305;28;20329;-82
2023/10/12 13:32:08;;;;;;;2.63;1.67;;;27.10;59.40;;;;;;5057874;28;20116;-82
2023/10/12 13:34:33;;;;;;;2.05;1.70;;;27.20;59.70;;;;;;5057539;28;20031;-79
2023/10/12 13:36:59;;;;;;;4.95;2.90;;;27.70;59.70;;;;;;5057093;28;20361;-79
2023/10/12 13:39:25;;;;;;;5.38;2.28;;;28.30;58.70;;;;;;5057172;28;20028;-80
2023/10/12 13:41:51;;;;;;;4.63;2.10;;;29.00;57.70;;;;;;5057136;28;20119;-80
2023/10/12 13:44:25;;;;;;;3.63;2.10;;;28.80;56.40;;;;;;5058575;28;20024;-82
2023/10/12 13:46:51;;;;;;;2.75;2.22;;;28.40;57.20;;;;;;5060245;28;20028;-82
2023/10/12 13:49:20;;;;;;;7.00;2.33;;;28.00;58.00;;;;;;5064770;28;20023;-81
2023/10/12 13:51:48;;;;;;;4.45;2.00;;;27.70;58.90;;;;;;5062634;28;20020;-82
2023/10/12 13:54:14;;;;;;;4.95;1.88;;;27.40;59.20;;;;;;5060934;28;20036;-81
2023/10/12 13:56:44;;;;;;;5.07;1.83;;;27.50;60.30;;;;;;5060713;28;20025;-82
2023/10/12 13:59:09;;;;;;;1.95;1.60;;;28.00;59.60;;;;;;5059192;28;20024;-80
2023/10/12 14:01:37;;;;;;;5.55;2.00;;;28.00;58.50;;;;;;5063266;28;20403;-79
2023/10/12 14:04:22;;;;;;;7.47;1.95;;;28.00;58.60;;;;;;5085032;28;20084;-79
2023/10/12 14:06:48;;;;;;;5.05;2.63;;;28.10;58.50;;;;;;5061350;28;20040;-79
2023/10/12 14:09:15;;;;;;;6.38;2.83;;;28.40;58.00;;;;;;5074296;28;20117;-80
2023/10/12 14:11:41;;;;;;;3.20;2.08;;;28.30;56.40;;;;;;5057188;28;20074;-80
2023/10/12 14:14:09;;;;;;;4.32;2.70;;;27.80;59.50;;;;;;5056925;28;20111;-80
2023/10/12 14:16:35;;;;;;;3.93;2.20;;;28.30;58.50;;;;;;5057007;28;20415;-79
2023/10/12 14:19:02;;;;;;;4.50;2.80;;;28.50;57.90;;;;;;5074683;28;20082;-75
2023/10/12 14:21:29;;;;;;;3.13;1.65;;;28.70;58.90;;;;;;5074820;28;20024;-76
2023/10/12 14:23:58;;;;;;;5.30;1.95;;;28.80;56.50;;;;;;5074470;28;20051;-74
2023/10/12 14:26:24;;;;;;;26.27;2.42;;;28.20;56.30;;;;;;5074915;28;20086;-77
2023/10/12 14:28:50;;;;;;;4.93;1.98;;;28.20;57.30;;;;;;5074471;28;20066;-73
2023/10/12 14:31:17;;;;;;;3.53;2.35;;;28.10;57.20;;;;;;5074306;28;20031;-78
2023/10/12 14:33:45;;;;;;;3.70;1.85;;;28.10;57.30;;;;;;5056349;28;20052;-73
2023/10/12 14:36:11;;;;;;;4.30;2.42;;;28.50;57.40;;;;;;5074187;28;20032;-79
2023/10/12 14:38:37;;;;;;;5.47;2.03;;;28.60;55.90;;;;;;5074394;28;20488;-79
2023/10/12 14:41:06;;;;;;;3.78;1.85;;;28.60;56.10;;;;;;5055577;28;20119;-78
2023/10/12 14:43:33;;;;;;;9.48;1.92;;;28.60;56.80;;;;;;5056344;28;20053;-78
2023/10/12 14:46:01;;;;;;;6.82;1.65;;;28.40;56.90;;;;;;5074160;28;20027;-79
2023/10/12 14:48:27;;;;;;;1.70;1.58;;;28.30;57.40;;;;;;5074094;28;20354;-78